Time;durP1;ratioP1;P1;durP2;ratioP2;P2;SDS_P1;SDS_P2;PMS_P1;PMS_P2;Temp;Humidity;BMP_temperature;BMP_pressure;BME280_temperature;BME280_humidity;BME280_pressure;Samples;Min_cycle;Max_cycle;Signal;HPM_P1;HPM_P2
2022/01/22 00:01:58;;;;;;;9.80;6.65;;;;;;;17.87;26.12;97578.78;5171708;27;20113;-64
2022/01/22 00:04:23;;;;;;;9.15;6.60;;;;;;;17.85;26.35;97587.84;5170953;27;20063;-63
2022/01/22 00:06:51;;;;;;;8.30;6.43;;;;;;;17.85;26.38;97579.00;5170861;27;20014;-64
2022/01/22 00:09:17;;;;;;;10.23;7.55;;;;;;;17.83;26.08;97579.22;5183865;27;20037;-64
2022/01/22 00:11:51;;;;;;;9.30;6.90;;;;;;;17.82;25.95;97588.25;5179289;27;20034;-64
2022/01/22 00:14:24;;;;;;;11.23;6.57;;;;;;;17.78;26.01;97584.41;5170302;27;20026;-64
2022/01/22 00:16:55;;;;;;;12.13;6.72;;;;;;;17.80;26.07;97592.19;5170663;27;20018;-64
2022/01/22 00:19:20;;;;;;;8.82;6.88;;;;;;;17.79;25.97;97596.72;5170618;27;20010;-63
2022/01/22 00:21:46;;;;;;;9.00;6.90;;;;;;;17.78;26.04;97586.25;5152311;27;20021;-63
2022/01/22 00:24:13;;;;;;;9.15;7.40;;;;;;;17.78;26.21;97589.75;5170216;27;20030;-64
2022/01/22 00:26:39;;;;;;;9.80;6.72;;;;;;;17.80;26.16;97594.88;5170436;27;20087;-64
2022/01/22 00:29:04;;;;;;;10.07;6.47;;;;;;;17.78;26.30;97586.25;5170416;27;20014;-64
2022/01/22 00:31:30;;;;;;;8.55;6.53;;;;;;;17.79;26.36;97598.59;5170175;27;20131;-64
2022/01/22 00:33:55;;;;;;;8.45;6.57;;;;;;;17.77;26.18;97598.81;5169595;27;20186;-64
2022/01/22 00:36:21;;;;;;;8.43;6.10;;;;;;;17.77;26.25;97600.66;5169876;27;20224;-64
2022/01/22 00:38:47;;;;;;;10.10;6.85;;;;;;;17.75;26.22;97602.72;5170206;27;20033;-63
2022/01/22 00:41:12;;;;;;;7.80;5.95;;;;;;;17.75;26.20;97597.38;5170123;27;20026;-63
2022/01/22 00:43:38;;;;;;;7.78;5.55;;;;;;;17.74;26.32;97606.41;5170315;27;20199;-64
2022/01/22 00:46:04;;;;;;;8.63;5.97;;;;;;;17.74;26.27;97604.59;5170174;27;20011;-64
2022/01/22 00:48:29;;;;;;;8.90;6.65;;;;;;;17.72;26.23;97603.97;5169896;27;20048;-64
2022/01/22 00:50:56;;;;;;;7.03;6.22;;;;;;;17.73;26.25;97610.13;5169617;27;20247;-63
2022/01/22 00:53:24;;;;;;;11.23;7.07;;;;;;;17.75;26.00;97616.09;5169260;27;20010;-64
2022/01/22 00:55:50;;;;;;;8.10;6.25;;;;;;;17.73;26.08;97610.97;5169931;27;20051;-64
2022/01/22 00:58:16;;;;;;;9.13;5.95;;;;;;;17.72;26.18;97612.00;5169581;27;20014;-64
2022/01/22 01:00:41;;;;;;;8.13;6.38;;;;;;;17.70;26.20;97611.38;5169776;27;20014;-64
2022/01/22 01:03:07;;;;;;;6.75;5.80;;;;;;;17.70;26.21;97622.09;5169842;27;20089;-64
2022/01/22 01:05:33;;;;;;;8.35;6.78;;;;;;;17.67;26.04;97620.66;5169706;27;20129;-63
2022/01/22 01:07:59;;;;;;;7.32;5.80;;;;;;;17.68;26.14;97625.00;5169427;27;20015;-64
2022/01/22 01:10:24;;;;;;;8.77;6.38;;;;;;;17.71;26.02;97630.94;5169232;27;20257;-63
2022/01/22 01:12:51;;;;;;;8.52;6.30;;;;;;;17.69;26.00;97628.47;5169556;27;20029;-63
2022/01/22 01:17:57;;;;;;;10.43;6.28;;;;;;;17.66;26.29;97627.06;5169345;27;20011;-63
2022/01/22 01:34:13;;;;;;;5.97;5.03;;;;;;;17.66;26.19;97629.72;5169082;27;20053;-63
2022/01/22 01:36:40;;;;;;;8.68;5.78;;;;;;;17.65;26.14;97637.94;5181979;27;20022;-64
2022/01/22 01:39:09;;;;;;;6.80;5.15;;;;;;;17.64;26.19;97639.81;5173596;27;20019;-64
2022/01/22 01:44:01;;;;;;;7.43;5.10;;;;;;;17.65;25.90;97630.75;5168977;27;20038;-64
2022/01/22 01:46:30;;;;;;;11.55;4.97;;;;;;;17.64;26.04;97629.13;5169156;27;20239;-63
2022/01/22 01:48:57;;;;;;;9.30;6.03;;;;;;;17.63;25.64;97630.16;5169210;27;20010;-64
2022/01/22 01:51:25;;;;;;;6.47;4.82;;;;;;;17.63;25.95;97626.66;5169182;27;20083;-63
2022/01/22 01:54:46;;;;;;;6.03;4.57;;;;;;;17.63;25.74;97630.16;5168878;27;20091;-63
2022/01/22 01:59:21;;;;;;;7.32;4.90;;;;;;;17.59;25.77;97641.50;5169187;27;20063;-63
2022/01/22 02:01:47;;;;;;;5.85;4.30;;;;;;;17.62;25.77;97641.06;5169219;27;20023;-64
2022/01/22 02:04:13;;;;;;;7.90;4.90;;;;;;;17.60;25.91;97646.59;5169129;27;20022;-63
2022/01/22 02:06:40;;;;;;;7.90;5.47;;;;;;;17.58;25.94;97642.53;5172900;27;20025;-64
2022/01/22 02:09:08;;;;;;;6.88;4.85;;;;;;;17.59;25.96;97650.31;5158429;27;20022;-63
2022/01/22 02:11:35;;;;;;;9.18;4.85;;;;;;;17.59;25.59;97653.00;5152153;27;20074;-64
2022/01/22 02:14:07;;;;;;;5.63;4.35;;;;;;;17.56;25.88;97656.13;5152199;27;20015;-63
2022/01/22 02:24:53;;;;;;;4.40;3.92;;;;;;;17.53;25.86;97661.88;5172947;27;20053;-64
2022/01/22 02:27:19;;;;;;;6.15;4.18;;;;;;;17.55;26.08;97662.50;5172613;27;20053;-64
2022/01/22 02:29:45;;;;;;;8.98;5.10;;;;;;;17.53;25.71;97665.38;5172481;27;20022;-64
2022/01/22 02:35:41;;;;;;;5.40;3.90;;;;;;;17.52;25.79;97668.25;5114592;27;20027;-64
2022/01/22 02:38:14;;;;;;;5.55;4.65;;;;;;;17.52;25.56;97661.03;5160601;27;20312;-63
2022/01/22 02:40:48;;;;;;;4.60;4.13;;;;;;;17.50;26.00;97660.44;5154382;27;20049;-63
2022/01/22 02:43:15;;;;;;;6.20;4.45;;;;;;;17.50;26.00;97659.63;5172454;27;20007;-64
2022/01/22 02:45:42;;;;;;;5.00;4.40;;;;;;;17.50;25.94;97665.78;5172656;27;20011;-63
2022/01/22 02:48:08;;;;;;;6.93;4.22;;;;;;;17.51;25.60;97666.63;5172028;27;20085;-63
2022/01/22 02:50:34;;;;;;;7.70;4.97;;;;;;;17.52;25.39;97668.25;5172399;27;20033;-63
2022/01/22 02:53:04;;;;;;;8.55;4.30;;;;;;;17.52;25.66;97676.28;5172171;27;20010;-63
2022/01/22 02:55:30;;;;;;;6.43;4.40;;;;;;;17.51;25.77;97666.63;5172243;27;20070;-64
2022/01/22 02:57:56;;;;;;;7.53;4.70;;;;;;;17.51;25.75;97674.63;5168136;27;20030;-63
2022/01/22 03:00:22;;;;;;;6.28;4.28;;;;;;;17.51;25.93;97675.44;5172228;27;20018;-64
2022/01/22 03:02:48;;;;;;;6.13;3.92;;;;;;;17.50;26.00;97683.69;5172101;27;20091;-63
2022/01/22 03:05:14;;;;;;;6.05;4.40;;;;;;;17.50;25.59;97686.38;5171749;27;20120;-63
2022/01/22 03:07:41;;;;;;;6.22;4.40;;;;;;;17.50;25.86;97689.84;5172033;27;20029;-63
2022/01/22 03:10:09;;;;;;;6.53;4.05;;;;;;;17.50;25.65;97686.38;5172322;27;20014;-64
2022/01/22 03:17:55;;;;;;;6.22;3.58;;;;;;;17.46;25.83;97701.19;5171131;27;20251;-63
2022/01/22 03:28:00;;;;;;;5.82;4.07;;;;;;;17.48;25.88;97707.97;5173484;27;20253;-63
2022/01/22 03:30:27;;;;;;;6.50;4.15;;;;;;;17.47;25.60;97697.47;5171709;27;20026;-64
2022/01/22 03:32:55;;;;;;;5.72;3.90;;;;;;;17.47;25.67;97703.66;5171648;27;20175;-64
2022/01/22 03:35:28;;;;;;;5.63;4.25;;;;;;;17.48;25.32;97713.31;5171223;27;20019;-64
2022/01/22 03:37:56;;;;;;;5.75;4.03;;;;;;;17.47;25.61;97717.03;5171017;27;20129;-64
2022/01/22 03:40:29;;;;;;;6.85;3.92;;;;;;;17.46;25.81;97718.06;5171390;27;20239;-64
2022/01/22 03:42:55;;;;;;;5.65;3.88;;;;;;;17.45;25.57;97715.56;5171607;27;20108;-63
2022/01/22 03:45:22;;;;;;;5.75;3.63;;;;;;;17.46;25.67;97727.91;5171260;27;20018;-63
2022/01/22 03:47:48;;;;;;;8.00;4.30;;;;;;;17.45;25.65;97731.63;5170917;27;20192;-63
2022/01/22 03:50:15;;;;;;;5.07;3.40;;;;;;;17.45;26.07;97740.47;5171261;27;20026;-63
2022/01/22 03:52:41;;;;;;;8.80;5.00;;;;;;;17.43;26.26;97739.84;5171063;27;20022;-64
2022/01/22 03:55:11;;;;;;;4.90;3.80;;;;;;;17.45;26.35;97748.50;5171024;27;20042;-66
2022/01/22 03:57:37;;;;;;;6.20;3.70;;;;;;;17.43;26.17;97749.72;5170711;27;20227;-64
2022/01/22 04:00:06;;;;;;;4.30;3.15;;;;;;;17.44;26.30;97752.19;5170750;27;20036;-64
2022/01/22 04:05:09;;;;;;;6.05;3.83;;;;;;;17.44;26.60;97757.53;5170855;27;20018;-64
2022/01/22 04:08:06;;;;;;;6.50;3.75;;;;;;;17.44;26.17;97762.88;5170870;27;20117;-64
2022/01/22 04:10:24;;;;;;;5.00;3.00;;;;;;;17.45;26.67;97759.19;5170594;27;20215;-63
2022/01/22 04:13:00;;;;;;;4.70;3.80;;;;;;;17.47;26.74;97770.50;5170231;27;20051;-64
2022/01/22 04:15:28;;;;;;;6.40;3.80;;;;;;;17.46;26.80;97771.53;5170610;27;20014;-64
2022/01/22 04:26:08;;;;;;;5.15;3.70;;;;;;;17.42;27.08;97774.84;5149641;27;20223;-64
2022/01/22 04:28:34;;;;;;;6.60;4.70;;;;;;;17.42;26.73;97782.84;5148536;27;20304;-64
2022/01/22 04:30:59;;;;;;;7.13;4.38;;;;;;;17.42;27.10;97782.84;5149553;27;20126;-64
2022/01/22 04:33:25;;;;;;;6.60;3.63;;;;;;;17.42;26.78;97783.66;5149808;27;20011;-64
2022/01/22 04:35:50;;;;;;;5.50;3.83;;;;;;;17.41;27.01;97787.38;5164943;27;20124;-64
2022/01/22 04:38:16;;;;;;;6.68;4.28;;;;;;;17.42;26.76;97790.88;5170188;27;20021;-64
2022/01/22 04:40:42;;;;;;;5.53;4.25;;;;;;;17.41;27.18;97794.56;5170304;27;20170;-64
2022/01/22 04:43:08;;;;;;;5.95;3.85;;;;;;;17.41;26.96;97798.06;5170149;27;20142;-64
2022/01/22 04:48:26;;;;;;;6.72;4.40;;;;;;;17.42;27.25;97798.91;5169948;27;20010;-64
2022/01/22 04:56:16;;;;;;;7.10;4.65;;;;;;;17.38;27.08;97806.47;5169967;27;20085;-64
2022/01/22 04:58:42;;;;;;;6.30;4.30;;;;;;;17.37;27.16;97810.19;5169650;27;20127;-64
2022/01/22 05:01:07;;;;;;;6.13;4.22;;;;;;;17.37;26.95;97808.34;5169564;27;20243;-64
2022/01/22 05:03:33;;;;;;;4.95;3.97;;;;;;;17.37;27.33;97812.84;5169340;27;20029;-64
2022/01/22 05:05:59;;;;;;;6.68;4.40;;;;;;;17.38;27.06;97817.19;5169659;27;20023;-64
2022/01/22 05:08:25;;;;;;;6.40;3.75;;;;;;;17.37;27.11;97816.38;5169381;27;20010;-64
2022/01/22 05:10:50;;;;;;;4.90;4.25;;;;;;;17.39;26.90;97833.03;5169613;27;20101;-63
2022/01/22 05:13:16;;;;;;;6.85;4.93;;;;;;;17.38;26.37;97822.53;5163955;27;20015;-64
2022/01/22 05:15:42;;;;;;;7.28;4.47;;;;;;;17.37;26.97;97835.09;5164450;27;20084;-64
2022/01/22 05:18:08;;;;;;;6.97;4.95;;;;;;;17.37;26.44;97837.75;5169749;27;20022;-64
2022/01/22 05:20:43;;;;;;;6.65;4.65;;;;;;;17.39;26.79;97842.88;5151793;27;20042;-64
2022/01/22 05:23:16;;;;;;;6.57;4.80;;;;;;;17.36;27.03;97838.78;5169409;27;20019;-64
2022/01/22 05:26:31;;;;;;;5.72;4.20;;;;;;;17.37;26.78;97852.97;5169574;27;20244;-64
2022/01/22 05:31:37;;;;;;;6.17;4.60;;;;;;;17.34;27.18;97858.75;5169526;27;20038;-63
2022/01/22 05:37:05;;;;;;;5.85;4.78;;;;;;;17.32;27.12;97866.13;5148776;28;20223;-63
2022/01/22 05:39:32;;;;;;;5.72;4.05;;;;;;;17.31;27.18;97867.97;5148867;27;20046;-63
2022/01/22 05:42:00;;;;;;;8.55;4.60;;;;;;;17.33;27.06;97875.81;5152814;27;20015;-64
2022/01/22 05:44:26;;;;;;;6.85;5.00;;;;;;;17.33;26.92;97878.47;5152744;27;20159;-64
2022/01/22 05:46:55;;;;;;;5.70;4.10;;;;;;;17.31;26.99;97873.31;5152815;27;20003;-63
2022/01/22 05:49:22;;;;;;;9.05;5.15;;;;;;;17.31;26.88;97869.84;5152864;27;20011;-63
2022/01/22 05:51:50;;;;;;;8.23;5.53;;;;;;;17.32;26.45;97880.31;5152931;27;20050;-63
2022/01/22 05:59:40;;;;;;;7.35;4.60;;;;;;;17.30;27.12;97886.91;5152630;27;20284;-64
2022/01/22 06:02:17;;;;;;;6.47;4.97;;;;;;;17.30;26.95;97887.72;5152078;27;20007;-63
2022/01/22 06:04:44;;;;;;;6.78;5.13;;;;;;;17.31;27.18;97899.25;5152422;27;20126;-64
2022/01/22 06:07:10;;;;;;;7.80;5.05;;;;;;;17.31;27.15;97900.06;5152203;27;20158;-64
2022/01/22 06:09:39;;;;;;;7.40;4.78;;;;;;;17.31;27.04;97904.59;5152379;27;20072;-64
2022/01/22 06:14:32;;;;;;;5.57;4.60;;;;;;;17.32;27.17;97911.59;5152355;27;20236;-64
2022/01/22 06:16:58;;;;;;;9.30;4.93;;;;;;;17.32;26.98;97923.09;5152169;27;20027;-64
2022/01/22 06:19:23;;;;;;;8.80;5.82;;;;;;;17.31;26.72;97932.13;5152198;27;20015;-64
2022/01/22 06:21:52;;;;;;;6.47;4.50;;;;;;;17.27;26.99;97922.91;5152006;27;20087;-63
2022/01/22 06:24:18;;;;;;;6.80;5.15;;;;;;;17.31;27.02;97929.47;5152088;27;20026;-64
2022/01/22 06:26:44;;;;;;;7.05;5.65;;;;;;;17.31;26.86;97934.00;5151858;27;20272;-64
2022/01/22 06:29:10;;;;;;;5.93;4.85;;;;;;;17.32;27.27;97927.63;5152019;27;20019;-64
2022/01/22 06:31:35;;;;;;;6.53;4.63;;;;;;;17.31;26.97;97937.47;5151962;27;20181;-64
2022/01/22 06:34:01;;;;;;;7.75;4.72;;;;;;;17.32;27.22;97949.00;5151729;27;20129;-64
2022/01/22 06:36:28;;;;;;;7.20;4.70;;;;;;;17.32;27.27;97949.81;5172118;27;20034;-63
2022/01/22 06:38:58;;;;;;;7.43;5.03;;;;;;;17.33;27.40;97950.66;5172556;27;20028;-64
2022/01/22 06:44:09;;;;;;;7.47;5.47;;;;;;;17.32;27.11;97947.16;5172448;27;20300;-63
2022/01/22 06:46:35;;;;;;;8.18;5.05;;;;;;;17.33;27.18;97954.16;5172422;27;20019;-64
2022/01/22 06:49:00;;;;;;;6.93;4.50;;;;;;;17.33;26.96;97954.16;5172342;27;20075;-64
2022/01/22 06:51:27;;;;;;;7.70;4.90;;;;;;;17.32;27.52;97944.47;5171180;27;20094;-64
2022/01/22 06:53:54;;;;;;;9.63;5.78;;;;;;;17.34;27.11;97955.78;5172242;27;20247;-64
2022/01/22 06:56:21;;;;;;;6.45;5.50;;;;;;;17.36;27.38;97961.75;5172335;27;20021;-64
2022/01/22 06:58:48;;;;;;;6.45;5.00;;;;;;;17.37;27.36;97963.41;5172187;27;20177;-64
2022/01/22 07:01:15;;;;;;;5.97;4.95;;;;;;;17.39;27.45;97974.72;5154006;27;20022;-64
2022/01/22 07:03:41;;;;;;;8.43;4.68;;;;;;;17.40;27.37;97980.88;5171907;27;20022;-64
2022/01/22 07:06:07;;;;;;;6.43;5.15;;;;;;;17.39;27.02;97980.06;5172123;27;20017;-63
2022/01/22 07:08:32;;;;;;;7.40;5.00;;;;;;;17.41;27.31;97987.88;5171880;27;20014;-63
2022/01/22 07:10:58;;;;;;;6.18;5.47;;;;;;;17.39;27.18;97992.59;5171852;27;20053;-63
2022/01/22 07:13:23;;;;;;;8.75;5.65;;;;;;;17.39;27.08;97996.13;5171677;27;20019;-64
2022/01/22 07:15:49;;;;;;;6.68;4.90;;;;;;;17.39;27.03;97990.78;5171676;27;20074;-64
2022/01/22 07:18:15;;;;;;;6.93;5.20;;;;;;;17.41;27.04;98009.28;5171675;27;20022;-64
2022/01/22 07:20:42;;;;;;;9.52;6.53;;;;;;;17.45;26.82;98004.34;5171769;27;20168;-64
2022/01/22 07:25:41;;;;;;;7.68;5.63;;;;;;;17.44;27.21;98019.56;5151311;27;20015;-64
2022/01/22 07:28:07;;;;;;;9.00;5.85;;;;;;;17.44;26.90;98024.06;5162560;27;20026;-64
2022/01/22 07:30:33;;;;;;;8.20;5.53;;;;;;;17.46;26.97;98032.72;5171015;27;20018;-64
2022/01/22 07:32:59;;;;;;;8.27;5.40;;;;;;;17.47;27.01;98037.03;5171304;27;20021;-64
2022/01/22 07:35:24;;;;;;;8.88;6.10;;;;;;;17.48;26.99;98041.38;5171430;27;20023;-64
2022/01/22 07:37:50;;;;;;;8.98;6.80;;;;;;;17.49;26.98;98043.84;5171376;27;20010;-64
2022/01/22 07:40:16;;;;;;;8.00;5.50;;;;;;;17.48;27.01;98049.38;5171471;27;20042;-64
2022/01/22 07:42:42;;;;;;;8.27;6.05;;;;;;;17.47;26.93;98056.59;5171154;27;20172;-63
2022/01/22 07:45:09;;;;;;;9.02;6.45;;;;;;;17.48;26.76;98062.75;5171281;27;20026;-63
2022/01/22 07:47:35;;;;;;;9.68;6.22;;;;;;;17.48;27.20;98068.09;5171166;27;20074;-63
2022/01/22 07:50:02;;;;;;;11.25;7.53;;;;;;;17.47;26.86;98069.97;5171063;27;20022;-63
2022/01/22 07:52:28;;;;;;;7.50;5.97;;;;;;;17.48;27.07;98076.13;5170806;27;20053;-63
2022/01/22 07:54:53;;;;;;;7.03;6.10;;;;;;;17.50;27.12;98082.91;5171092;27;20018;-63
2022/01/22 07:57:19;;;;;;;8.60;6.38;;;;;;;17.51;26.95;98086.44;5171210;27;20003;-63
2022/01/22 07:59:44;;;;;;;7.38;6.28;;;;;;;17.52;27.21;98086.22;5171052;27;20021;-63
2022/01/22 08:02:10;;;;;;;9.70;5.97;;;;;;;17.52;27.17;98085.41;5170640;27;20007;-63
2022/01/22 08:04:36;;;;;;;9.65;6.50;;;;;;;17.51;27.05;98086.44;5170701;27;20320;-64
2022/01/22 08:07:03;;;;;;;7.70;5.97;;;;;;;17.51;27.26;98089.91;5170723;27;20018;-64
2022/01/22 08:09:30;;;;;;;8.20;6.68;;;;;;;17.52;27.11;98083.53;5170823;27;20021;-64
2022/01/22 08:11:55;;;;;;;12.10;7.90;;;;;;;17.53;27.00;98092.41;5170339;27;20058;-64
2022/01/22 08:14:21;;;;;;;13.40;8.57;;;;;;;17.52;27.03;98104.13;5156002;27;20022;-64
2022/01/22 08:16:48;;;;;;;16.20;9.18;;;;;;;17.54;27.12;98102.88;5149947;27;20116;-64
2022/01/22 08:19:15;;;;;;;19.58;10.00;;;;;;;17.54;26.98;98105.56;5149791;27;20050;-64
2022/01/22 08:21:41;;;;;;;19.38;10.23;;;;;;;17.57;27.37;98115.06;5149661;27;20026;-64
2022/01/22 08:24:07;;;;;;;22.08;11.43;;;;;;;17.58;27.22;98116.66;5149665;27;20042;-65
2022/01/22 08:26:37;;;;;;;21.35;11.07;;;;;;;17.59;27.26;98112.16;5149598;27;20074;-63
2022/01/22 08:29:03;;;;;;;22.65;11.10;;;;;;;17.60;27.51;98119.16;5149585;27;20015;-63
2022/01/22 08:36:24;;;;;;;20.55;11.68;;;;;;;17.58;27.43;98116.66;5169805;27;20279;-63
2022/01/22 08:38:49;;;;;;;23.20;12.93;;;;;;;17.61;27.58;98121.63;5169897;27;20014;-64
2022/01/22 08:41:15;;;;;;;20.20;11.00;;;;;;;17.63;27.90;98127.59;5170269;27;20014;-64
2022/01/22 08:43:41;;;;;;;24.10;11.70;;;;;;;17.64;27.70;98118.56;5170118;27;20014;-65
2022/01/22 08:46:06;;;;;;;16.73;10.73;;;;;;;17.67;27.14;98136.03;5170050;27;20124;-65
2022/01/22 08:48:32;;;;;;;18.00;11.07;;;;;;;17.65;27.21;98136.25;5170090;27;20074;-65
2022/01/22 08:50:58;;;;;;;14.90;11.27;;;;;;;17.66;26.95;98129.88;5170105;27;20042;-65
2022/01/22 08:53:25;;;;;;;16.98;10.40;;;;;;;17.66;27.16;98129.88;5169821;27;20239;-65
2022/01/22 08:55:51;;;;;;;16.88;10.02;;;;;;;17.69;27.19;98134.00;5169939;27;20018;-63
2022/01/22 08:58:17;;;;;;;13.77;10.20;;;;;;;17.69;27.19;98142.03;5169736;27;20042;-64
2022/01/22 09:00:45;;;;;;;15.20;10.05;;;;;;;17.72;27.24;98138.94;5169763;27;20173;-64
2022/01/22 09:03:13;;;;;;;13.18;9.85;;;;;;;17.69;27.35;98150.88;5158758;27;20039;-64
2022/01/22 09:05:39;;;;;;;15.27;8.75;;;;;;;17.73;27.03;98158.47;5149016;27;20059;-64
2022/01/22 09:08:05;;;;;;;12.30;8.43;;;;;;;17.72;27.16;98160.34;5148846;27;20031;-63
2022/01/22 09:10:31;;;;;;;11.75;7.82;;;;;;;17.73;27.24;98155.81;5148743;27;20106;-64
2022/01/22 09:12:57;;;;;;;11.45;9.05;;;;;;;17.74;27.31;98168.16;5148652;27;20033;-64
2022/01/22 09:15:23;;;;;;;13.30;9.68;;;;;;;17.74;26.71;98165.47;5148252;27;20011;-64
2022/01/22 09:17:49;;;;;;;13.90;8.25;;;;;;;17.73;27.11;98159.31;5148813;27;20018;-63
2022/01/22 09:20:31;;;;;;;14.73;8.60;;;;;;;17.77;26.81;98173.13;5148871;27;20015;-64
2022/01/22 09:22:58;;;;;;;10.88;7.85;;;;;;;17.77;26.64;98179.31;5148922;27;20204;-64
2022/01/22 09:25:23;;;;;;;12.25;9.13;;;;;;;17.77;27.10;98189.16;5148694;27;20038;-64
2022/01/22 09:27:49;;;;;;;13.07;7.93;;;;;;;17.75;27.24;98189.38;5148697;27;20019;-64
2022/01/22 09:30:14;;;;;;;13.45;8.75;;;;;;;17.76;27.12;98191.03;5148701;28;20109;-65
2022/01/22 09:32:40;;;;;;;12.70;8.18;;;;;;;17.79;27.24;98203.16;5148442;27;20019;-65
2022/01/22 09:35:05;;;;;;;10.98;7.47;;;;;;;17.78;27.28;98204.19;5157371;27;20010;-64
2022/01/22 09:37:31;;;;;;;11.38;8.07;;;;;;;17.79;27.05;98205.84;5169385;27;20018;-64
2022/01/22 09:39:57;;;;;;;10.48;7.63;;;;;;;17.78;27.06;98213.06;5168971;27;20074;-64
2022/01/22 09:42:23;;;;;;;9.98;7.60;;;;;;;17.78;27.08;98221.09;5169043;27;20007;-64
2022/01/22 09:44:48;;;;;;;11.65;7.03;;;;;;;17.79;27.23;98216.53;5169305;27;20140;-64
2022/01/22 09:47:19;;;;;;;10.43;7.45;;;;;;;17.80;27.32;98220.88;5168723;27;20019;-64
2022/01/22 09:49:45;;;;;;;;;;;;;;;17.72;27.44;98218.38;5169681;27;20019;-63
2022/01/22 09:52:10;;;;;;;9.13;7.90;;;;;;;17.75;27.34;98215.28;5169220;27;19970;-64
2022/01/22 09:54:36;;;;;;;9.20;6.45;;;;;;;17.77;27.23;98218.59;5169339;27;20063;-64
2022/01/22 09:57:04;;;;;;;11.88;7.85;;;;;;;17.79;27.22;98214.69;5169004;27;20014;-63
2022/01/22 09:59:30;;;;;;;11.95;7.72;;;;;;;17.80;27.28;98226.22;5169265;27;20157;-65
2022/01/22 10:02:14;;;;;;;12.25;9.13;;;;;;;17.81;27.03;98227.88;5169151;27;20019;-63
2022/01/22 10:04:41;;;;;;;10.13;8.25;;;;;;;17.80;26.74;98237.75;5169155;27;20220;-63
2022/01/22 10:07:23;;;;;;;11.15;8.15;;;;;;;17.79;26.69;98238.75;5169147;27;20074;-63
2022/01/22 10:10:06;;;;;;;10.77;8.45;;;;;;;17.79;26.69;98237.94;5169161;27;20037;-63
2022/01/22 10:12:54;;;;;;;9.55;8.02;;;;;;;17.77;26.82;98242.66;5168774;27;20033;-65
2022/01/22 10:15:22;;;;;;;11.73;7.85;;;;;;;17.78;26.81;98233.63;5168475;27;20240;-65
2022/01/22 10:17:56;;;;;;;11.48;8.00;;;;;;;17.78;26.57;98241.66;5168694;27;20116;-63
2022/01/22 10:20:21;;;;;;;15.95;7.95;;;;;;;17.77;26.82;98242.66;5169054;27;20074;-65
2022/01/22 10:23:02;;;;;;;8.98;7.47;;;;;;;17.75;26.82;98232.19;5169048;27;20017;-65
2022/01/22 10:25:45;;;;;;;10.88;7.25;;;;;;;17.73;26.84;98234.22;5151937;27;20304;-64
2022/01/22 10:28:21;;;;;;;10.98;7.53;;;;;;;17.74;26.76;98243.06;5172520;27;20117;-63
2022/01/22 10:30:51;;;;;;;10.13;7.57;;;;;;;17.73;26.74;98247.59;5172475;27;20026;-63
2022/01/22 10:33:33;;;;;;;9.90;8.02;;;;;;;17.75;26.67;98252.75;5172196;27;20053;-63
2022/01/22 10:36:18;;;;;;;10.18;8.45;;;;;;;17.75;26.83;98250.91;5172734;27;20010;-64
2022/01/22 10:38:51;;;;;;;10.85;7.93;;;;;;;17.74;26.82;98253.75;5172556;27;20039;-64
2022/01/22 10:41:30;;;;;;;9.52;7.38;;;;;;;17.74;26.71;98249.25;5172590;27;20131;-64
2022/01/22 10:43:56;;;;;;;11.38;7.53;;;;;;;17.74;27.01;98253.75;5172688;27;20207;-64
2022/01/22 10:46:43;;;;;;;10.23;8.40;;;;;;;17.76;26.68;98260.59;5172507;27;20025;-63
2022/01/22 10:49:23;;;;;;;10.40;8.38;;;;;;;17.76;26.62;98260.59;5170947;27;20017;-64
2022/01/22 10:51:50;;;;;;;11.63;7.20;;;;;;;17.78;26.78;98263.06;5172273;27;20018;-65
2022/01/22 10:54:19;;;;;;;11.57;7.25;;;;;;;17.80;26.82;98269.84;5171750;27;20063;-65
2022/01/22 10:56:45;;;;;;;10.43;7.07;;;;;;;17.81;26.75;98276.03;5172282;27;20029;-65
2022/01/22 10:59:14;;;;;;;7.63;6.80;;;;;;;17.82;26.73;98275.00;5171673;27;20025;-65
2022/01/22 11:01:55;;;;;;;11.98;8.52;;;;;;;17.85;26.67;98285.31;5172241;27;20060;-65
2022/01/22 11:04:28;;;;;;;10.55;9.10;;;;;;;17.90;25.99;98290.06;5172035;27;20059;-64
2022/01/22 11:06:57;;;;;;;11.60;8.43;;;;;;;17.94;26.33;98294.00;5171748;27;20033;-64
2022/01/22 11:09:24;;;;;;;10.88;8.98;;;;;;;17.98;26.09;98295.28;5171197;27;20082;-64
2022/01/22 11:11:51;;;;;;;9.60;7.05;;;;;;;18.02;26.17;98298.38;5171779;27;20045;-65
2022/01/22 11:14:18;;;;;;;10.02;8.95;;;;;;;18.02;26.10;98301.88;5157500;27;20015;-66
2022/01/22 11:16:45;;;;;;;9.35;8.07;;;;;;;18.03;25.86;98300.03;5151196;27;20082;-65
2022/01/22 11:19:14;;;;;;;10.43;8.65;;;;;;;18.07;26.02;98312.84;5167812;27;20230;-63
2022/01/22 11:21:44;;;;;;;9.10;6.97;;;;;;;18.10;25.87;98322.31;5153706;27;20135;-64
2022/01/22 11:24:16;;;;;;;12.98;8.77;;;;;;;18.10;25.77;98324.97;5171585;27;20019;-65
2022/01/22 11:26:45;;;;;;;9.35;8.13;;;;;;;18.12;25.80;98328.28;5171622;27;20018;-65
2022/01/22 11:29:14;;;;;;;9.68;7.63;;;;;;;18.12;25.94;98326.44;5171268;27;20090;-65
2022/01/22 11:31:42;;;;;;;10.48;8.35;;;;;;;18.13;25.72;98327.28;5171606;27;20070;-65
2022/01/22 11:34:08;;;;;;;11.07;8.77;;;;;;;18.13;25.72;98338.78;5171129;27;20018;-65
2022/01/22 11:36:45;;;;;;;11.85;8.38;;;;;;;18.15;25.67;98350.13;5171505;27;20022;-64
2022/01/22 11:39:19;;;;;;;10.57;8.15;;;;;;;18.14;25.56;98344.97;5170846;27;20050;-65
2022/01/22 11:41:57;;;;;;;11.23;7.70;;;;;;;18.14;25.59;98347.66;5171551;27;20212;-65
2022/01/22 11:44:50;;;;;;;8.77;7.72;;;;;;;18.14;25.70;98355.69;5171489;27;20065;-63
2022/01/22 11:47:20;;;;;;;11.95;8.02;;;;;;;18.16;25.85;98367.00;5171167;27;20069;-64
2022/01/22 11:50:09;;;;;;;10.43;7.13;;;;;;;18.16;25.86;98367.00;5171331;27;20279;-63
2022/01/22 11:52:40;;;;;;;9.10;7.18;;;;;;;18.16;25.99;98369.69;5170870;27;20022;-65
2022/01/22 11:55:09;;;;;;;13.68;8.60;;;;;;;18.19;26.00;98381.84;5170926;27;20026;-65
2022/01/22 11:57:35;;;;;;;12.65;8.90;;;;;;;18.22;25.58;98387.63;5170785;27;20045;-63
2022/01/22 12:00:30;;;;;;;14.15;7.95;;;;;;;18.25;25.53;98391.75;5170099;27;20023;-63
2022/01/22 12:03:19;;;;;;;11.77;8.70;;;;;;;18.28;25.47;98397.56;5146930;27;20027;-63
2022/01/22 12:05:53;;;;;;;10.88;8.65;;;;;;;18.29;25.44;98407.25;5170895;27;20036;-64
2022/01/22 12:08:20;;;;;;;9.30;7.75;;;;;;;18.29;25.51;98401.91;5170709;27;20096;-64
2022/01/22 12:16:18;;;;;;;9.98;7.45;;;;;;;18.30;25.55;98418.78;5170293;27;20025;-65
2022/01/22 12:18:55;;;;;;;10.73;9.10;;;;;;;18.29;25.51;98417.13;5170619;27;20011;-64
2022/01/22 12:21:38;;;;;;;10.88;7.53;;;;;;;18.33;25.48;98426.41;5170608;27;20025;-63
2022/01/22 12:24:12;;;;;;;10.20;7.50;;;;;;;18.33;25.45;98422.91;5169812;27;20030;-63
2022/01/22 12:26:49;;;;;;;10.45;8.45;;;;;;;18.33;25.41;98439.81;5170527;27;20026;-64
2022/01/22 12:29:38;;;;;;;10.02;7.75;;;;;;;18.31;25.60;98441.84;5170470;27;20265;-63
2022/01/22 12:32:19;;;;;;;13.40;8.68;;;;;;;18.31;25.32;98455.22;5170174;27;20025;-62
2022/01/22 12:35:00;;;;;;;12.20;7.07;;;;;;;18.33;25.92;98463.91;5155169;27;20038;-63
2022/01/22 12:37:28;;;;;;;10.52;7.82;;;;;;;18.40;25.92;98458.59;5169927;27;20034;-66
2022/01/22 12:39:55;;;;;;;13.10;8.90;;;;;;;18.46;25.47;98460.44;5170073;27;20022;-65
2022/01/22 12:42:33;;;;;;;11.48;8.45;;;;;;;18.54;25.69;98478.22;5170157;27;20015;-65
2022/01/22 12:45:02;;;;;;;10.60;7.40;;;;;;;18.60;25.78;98474.75;5170102;27;20026;-63
2022/01/22 12:47:28;;;;;;;9.88;8.15;;;;;;;18.65;25.37;98469.63;5170091;27;20029;-64
2022/01/22 12:50:08;;;;;;;11.70;7.10;;;;;;;18.67;25.50;98472.94;5169119;27;20011;-65
2022/01/22 12:52:34;;;;;;;11.85;9.05;;;;;;;18.76;25.20;98489.63;5169284;27;20010;-63
2022/01/22 12:55:13;;;;;;;15.70;8.30;;;;;;;18.82;25.01;98480.81;5169725;27;20210;-63
2022/01/22 12:57:43;;;;;;;14.88;8.90;;;;;;;18.85;24.77;98485.78;5169910;27;20204;-63
2022/01/22 13:00:17;;;;;;;17.08;7.45;;;;;;;18.83;24.64;98482.47;5169782;27;20068;-63
2022/01/22 13:02:44;;;;;;;10.50;7.50;;;;;;;18.73;24.65;98482.84;5169839;27;20025;-64
2022/01/22 13:05:13;;;;;;;14.20;6.93;;;;;;;18.64;24.88;98499.28;5169758;27;20023;-65
2022/01/22 13:07:46;;;;;;;9.75;6.75;;;;;;;18.51;25.27;98498.19;5169225;27;20046;-65
2022/01/22 13:10:11;;;;;;;9.15;6.75;;;;;;;18.41;25.24;98498.53;5169348;27;20030;-65
2022/01/22 13:12:43;;;;;;;9.02;6.75;;;;;;;18.34;25.25;98491.50;5169228;27;20030;-65